Time;durP1;ratioP1;P1;durP2;ratioP2;P2;SDS_P1;SDS_P2;PMS_P1;PMS_P2;Temp;Humidity;BMP_temperature;BMP_pressure;BME280_temperature;BME280_humidity;BME280_pressure;Samples;Min_cycle;Max_cycle;Signal;HPM_P1;HPM_P2
2023/03/22 00:02:01;;;;;;;43.07;26.20;;;7.40;99.90;;;;;;4345789;28;10000627;-74
2023/03/22 00:04:28;;;;;;;47.38;29.70;;;7.30;99.90;;;;;;5039773;28;20104;-74
2023/03/22 00:07:02;;;;;;;45.80;28.33;;;7.30;99.90;;;;;;5048739;28;20030;-74
2023/03/22 00:09:35;;;;;;;46.70;27.65;;;7.30;99.90;;;;;;5037367;28;20652;-74
2023/03/22 00:12:13;;;;;;;46.60;26.88;;;7.30;99.90;;;;;;5055938;28;20492;-75
2023/03/22 00:14:52;;;;;;;43.45;27.67;;;7.30;99.90;;;;;;5045222;28;20061;-74
2023/03/22 00:17:29;;;;;;;50.13;29.08;;;7.30;99.90;;;;;;5042693;28;20041;-74
2023/03/22 00:20:04;;;;;;;44.45;27.75;;;7.30;99.90;;;;;;5061180;28;20116;-75
2023/03/22 00:22:39;;;;;;;42.45;27.42;;;7.30;99.90;;;;;;5057381;28;20469;-74
2023/03/22 00:25:14;;;;;;;51.22;29.85;;;7.30;99.90;;;;;;5042128;28;20112;-74
2023/03/22 00:27:48;;;;;;;48.05;28.58;;;7.30;99.90;;;;;;5040184;28;20124;-74
2023/03/22 00:30:22;;;;;;;54.13;31.38;;;7.30;99.90;;;;;;5044648;28;20025;-74
2023/03/22 00:33:00;;;;;;;52.88;30.40;;;7.30;99.90;;;;;;5051121;28;20016;-74
2023/03/22 00:35:32;;;;;;;53.78;31.90;;;7.20;99.90;;;;;;5052213;28;20037;-74
2023/03/22 00:38:12;;;;;;;52.30;32.20;;;7.20;99.90;;;;;;5056036;28;20040;-74
2023/03/22 00:40:45;;;;;;;55.08;30.73;;;7.20;99.90;;;;;;5046015;28;20045;-74
2023/03/22 00:43:19;;;;;;;53.42;31.25;;;7.20;99.90;;;;;;5047417;28;20036;-74
2023/03/22 00:45:50;;;;;;;53.17;31.65;;;7.20;99.90;;;;;;5057877;28;20120;-74
2023/03/22 00:48:27;;;;;;;57.30;33.38;;;7.20;99.90;;;;;;5046794;28;20104;-74
2023/03/22 00:51:00;;;;;;;57.30;33.72;;;7.10;99.90;;;;;;5045803;28;20040;-74
2023/03/22 00:53:27;;;;;;;;;;;7.10;99.90;;;;;;5042994;28;20083;-75
2023/03/22 00:55:58;;;;;;;52.90;31.92;;;7.10;99.90;;;;;;5043616;28;20451;-74
2023/03/22 00:58:24;;;;;;;57.67;34.33;;;7.10;99.90;;;;;;5058236;28;20071;-75
2023/03/22 01:00:51;;;;;;;56.00;33.58;;;7.00;99.90;;;;;;5047221;28;20394;-74
2023/03/22 01:03:16;;;;;;;58.88;33.13;;;7.00;99.90;;;;;;5035005;28;20029;-75
2023/03/22 01:05:45;;;;;;;61.65;34.92;;;7.00;99.90;;;;;;5049304;28;20033;-75
2023/03/22 01:08:12;;;;;;;57.70;34.20;;;7.00;99.90;;;;;;5045594;28;20052;-75
2023/03/22 01:10:39;;;;;;;59.58;33.28;;;7.00;99.90;;;;;;5031275;28;20025;-75
2023/03/22 01:13:15;;;;;;;64.43;37.05;;;7.10;99.90;;;;;;5032841;28;20053;-75
2023/03/22 01:15:51;;;;;;;57.95;33.78;;;7.10;99.90;;;;;;5058373;28;20084;-75
2023/03/22 01:18:18;;;;;;;64.22;35.10;;;7.20;99.90;;;;;;5048082;28;20030;-75
2023/03/22 01:20:54;;;;;;;63.35;33.85;;;7.20;99.90;;;;;;5061896;28;20151;-74
2023/03/22 01:23:31;;;;;;;56.47;35.20;;;7.20;99.90;;;;;;5059314;28;20091;-74
2023/03/22 01:26:02;;;;;;;58.08;34.22;;;7.20;99.90;;;;;;5051938;28;20041;-75
2023/03/22 01:28:39;;;;;;;57.20;34.20;;;7.20;99.90;;;;;;5040968;28;20428;-75
2023/03/22 01:31:06;;;;;;;57.20;34.03;;;7.30;99.90;;;;;;5056869;28;20290;-75
2023/03/22 01:33:38;;;;;;;61.60;33.97;;;7.30;99.90;;;;;;5043529;28;20029;-74
2023/03/22 01:36:13;;;;;;;60.97;34.20;;;7.30;99.90;;;;;;5041661;28;20053;-74
2023/03/22 01:38:46;;;;;;;54.97;32.20;;;7.30;99.90;;;;;;5039743;28;20025;-74
2023/03/22 01:41:15;;;;;;;53.25;31.73;;;7.30;99.90;;;;;;5040457;28;20037;-74
2023/03/22 01:43:47;;;;;;;55.10;32.15;;;7.20;99.90;;;;;;5046317;28;20037;-74
2023/03/22 01:46:17;;;;;;;53.72;32.10;;;7.30;99.90;;;;;;5046262;28;20123;-74
2023/03/22 01:48:51;;;;;;;55.35;33.75;;;7.20;99.90;;;;;;5030271;28;20057;-74
2023/03/22 01:51:26;;;;;;;51.35;32.97;;;7.20;99.90;;;;;;5042128;28;20385;-74
2023/03/22 01:54:03;;;;;;;55.13;32.83;;;7.20;99.90;;;;;;5029529;28;20076;-74
2023/03/22 01:56:34;;;;;;;56.33;33.38;;;7.20;99.90;;;;;;5047825;28;20401;-74
2023/03/22 01:59:03;;;;;;;54.45;31.35;;;7.20;99.90;;;;;;5049884;28;20187;-74
2023/03/22 02:01:40;;;;;;;56.22;33.08;;;7.20;99.90;;;;;;5048765;28;20497;-74
2023/03/22 02:04:16;;;;;;;51.50;31.20;;;7.20;99.90;;;;;;5044722;28;20470;-74
2023/03/22 02:06:50;;;;;;;50.97;31.00;;;7.20;99.90;;;;;;5054598;28;20048;-74
2023/03/22 02:09:19;;;;;;;55.50;33.08;;;7.20;99.90;;;;;;5043766;28;20040;-74
2023/03/22 02:12:15;;;;;;;52.20;33.55;;;7.20;99.90;;;;;;5059739;28;20060;-74
2023/03/22 02:14:54;;;;;;;53.33;32.13;;;7.10;99.90;;;;;;5041737;28;20138;-75
2023/03/22 02:17:50;;;;;;;54.30;32.55;;;7.10;99.90;;;;;;5043802;28;22054;-74
2023/03/22 02:20:56;;;;;;;55.58;33.30;;;7.10;99.90;;;;;;5036388;28;20360;-74
2023/03/22 02:23:50;;;;;;;53.45;31.92;;;7.20;99.90;;;;;;5047660;28;20382;-75
2023/03/22 02:26:40;;;;;;;54.25;32.63;;;7.10;99.90;;;;;;5040234;28;20041;-74
2023/03/22 02:29:44;;;;;;;56.08;32.90;;;7.10;99.90;;;;;;5048373;28;20037;-74
2023/03/22 02:32:33;;;;;;;57.92;33.80;;;7.00;99.90;;;;;;5019650;28;20037;-74
2023/03/22 02:35:19;;;;;;;58.03;34.03;;;7.00;99.90;;;;;;5041040;28;20037;-74
2023/03/22 02:38:25;;;;;;;62.13;36.45;;;7.00;99.90;;;;;;5041345;28;20037;-74
2023/03/22 02:41:44;;;;;;;63.15;35.55;;;6.90;99.90;;;;;;5042583;28;20516;-74
2023/03/22 02:44:31;;;;;;;64.22;36.63;;;6.90;99.90;;;;;;5005752;28;20452;-74
2023/03/22 02:47:22;;;;;;;65.70;37.30;;;6.90;99.90;;;;;;5041349;28;20037;-74
2023/03/22 02:50:02;;;;;;;66.65;37.55;;;6.90;99.90;;;;;;5041157;28;20017;-74
2023/03/22 02:52:55;;;;;;;69.57;39.28;;;6.90;99.90;;;;;;5040274;28;20025;-74
2023/03/22 02:55:47;;;;;;;52.70;29.70;;;6.90;99.90;;;;;;5047988;28;20041;-74
2023/03/22 02:58:25;;;;;;;72.32;40.63;;;6.80;99.90;;;;;;5038947;28;20037;-74
2023/03/22 03:01:04;;;;;;;75.15;39.95;;;6.80;99.90;;;;;;5038493;28;20033;-74
2023/03/22 03:03:39;;;;;;;74.78;41.75;;;6.80;99.90;;;;;;5042829;28;20647;-74
2023/03/22 03:06:21;;;;;;;75.13;40.50;;;6.80;99.90;;;;;;5042009;28;20131;-74
2023/03/22 03:08:52;;;;;;;73.03;41.72;;;6.80;99.90;;;;;;5040472;28;20522;-74
2023/03/22 03:11:27;;;;;;;76.15;42.03;;;6.80;99.90;;;;;;5040049;28;20131;-74
2023/03/22 03:14:00;;;;;;;69.40;40.83;;;6.80;99.90;;;;;;5041757;28;20522;-74
2023/03/22 03:16:29;;;;;;;;;;;6.80;99.90;;;;;;5039809;28;20482;-74
2023/03/22 03:19:19;;;;;;;71.80;40.42;;;6.80;99.90;;;;;;5040287;28;19909;-74
2023/03/22 03:22:24;;;;;;;76.85;42.17;;;6.80;99.90;;;;;;5041697;28;20040;-74
2023/03/22 03:24:57;;;;;;;72.57;41.63;;;6.80;99.90;;;;;;5040672;28;20037;-74
2023/03/22 03:27:32;;;;;;;;;;;6.80;99.90;;;;;;5063445;28;20040;-75
2023/03/22 03:30:15;;;;;;;79.93;42.22;;;6.80;99.90;;;;;;5045535;28;19916;-74
2023/03/22 03:32:58;;;;;;;73.05;41.25;;;6.80;99.90;;;;;;5059738;28;20030;-74
2023/03/22 03:35:43;;;;;;;77.40;42.67;;;6.80;99.90;;;;;;5038500;28;20136;-74
2023/03/22 03:38:26;;;;;;;80.85;44.15;;;6.80;99.90;;;;;;5046855;28;20520;-75
2023/03/22 03:41:08;;;;;;;69.70;36.50;;;6.80;99.90;;;;;;5052097;28;20342;-74
2023/03/22 03:43:42;;;;;;;86.20;46.03;;;6.80;99.90;;;;;;5045418;28;20287;-74
2023/03/22 03:46:21;;;;;;;78.75;43.30;;;6.80;99.90;;;;;;5046314;28;20408;-74
2023/03/22 03:48:58;;;;;;;78.18;44.15;;;6.90;99.90;;;;;;5039084;28;20057;-74
2023/03/22 03:51:27;;;;;;;77.97;44.53;;;6.90;99.90;;;;;;5035908;28;20026;-75
2023/03/22 03:54:01;;;;;;;75.05;42.53;;;6.90;99.90;;;;;;5051016;28;20560;-74
2023/03/22 03:56:35;;;;;;;73.47;42.88;;;6.90;99.90;;;;;;5045094;28;20049;-74
2023/03/22 03:59:08;;;;;;;81.90;43.22;;;6.90;99.90;;;;;;5041022;28;20443;-75
2023/03/22 04:01:48;;;;;;;76.97;42.88;;;6.90;99.90;;;;;;5041527;28;20067;-75
2023/03/22 04:04:25;;;;;;;79.18;42.70;;;6.90;99.90;;;;;;5072087;28;20028;-75
2023/03/22 04:07:03;;;;;;;70.72;42.33;;;7.00;99.90;;;;;;5060040;28;20028;-74
2023/03/22 04:09:37;;;;;;;79.63;42.95;;;6.90;99.90;;;;;;5048301;28;20041;-74
2023/03/22 04:12:10;;;;;;;80.25;43.83;;;6.90;99.90;;;;;;5036588;28;20039;-74
2023/03/22 04:14:43;;;;;;;74.15;42.72;;;6.90;99.90;;;;;;5038389;28;20497;-74
2023/03/22 04:17:18;;;;;;;84.55;44.20;;;6.90;99.90;;;;;;5050585;28;20084;-74
2023/03/22 04:19:56;;;;;;;81.07;45.25;;;6.80;99.90;;;;;;5044036;28;20032;-74
2023/03/22 04:22:33;;;;;;;74.78;43.28;;;6.80;99.90;;;;;;5058541;28;20477;-74
2023/03/22 04:25:10;;;;;;;83.43;46.03;;;6.70;99.90;;;;;;5053680;28;20104;-74
2023/03/22 04:27:49;;;;;;;83.28;45.90;;;6.70;99.90;;;;;;5052389;28;20029;-74
2023/03/22 04:30:26;;;;;;;86.90;47.67;;;6.70;99.90;;;;;;5059136;28;20037;-74
2023/03/22 04:32:59;;;;;;;102.32;51.25;;;6.70;99.90;;;;;;5054206;28;20429;-74
2023/03/22 04:35:30;;;;;;;92.95;51.30;;;6.70;99.90;;;;;;5048986;28;20139;-74
2023/03/22 04:38:08;;;;;;;101.28;52.45;;;6.70;99.90;;;;;;5046222;28;20444;-74
2023/03/22 04:40:37;;;;;;;99.60;55.15;;;6.80;99.90;;;;;;5056911;28;20129;-74
2023/03/22 04:43:11;;;;;;;103.20;53.22;;;6.80;99.90;;;;;;5043706;28;20032;-74
2023/03/22 04:45:42;;;;;;;105.18;55.35;;;6.80;99.90;;;;;;5066874;28;20024;-74
2023/03/22 04:48:20;;;;;;;111.55;55.05;;;6.80;99.90;;;;;;5049552;28;20029;-74
2023/03/22 04:50:52;;;;;;;111.97;55.30;;;6.70;99.90;;;;;;5041840;28;20194;-74
2023/03/22 04:53:26;;;;;;;105.00;54.95;;;6.70;99.90;;;;;;5041660;28;20037;-75
2023/03/22 04:56:05;;;;;;;116.80;56.53;;;6.70;99.90;;;;;;5041809;28;20064;-74
2023/03/22 04:58:40;;;;;;;111.45;56.20;;;6.70;99.90;;;;;;5044010;28;20033;-75
2023/03/22 05:01:11;;;;;;;116.55;55.53;;;6.70;99.90;;;;;;5044413;28;20057;-74
2023/03/22 05:03:44;;;;;;;118.95;58.03;;;6.70;99.90;;;;;;5039467;28;20115;-74
2023/03/22 05:06:11;;;;;;;117.85;59.03;;;6.70;99.90;;;;;;5044927;28;20535;-74
2023/03/22 05:08:46;;;;;;;114.90;59.25;;;6.70;99.90;;;;;;5050178;28;20051;-74
2023/03/22 05:11:16;;;;;;;122.05;58.03;;;6.70;99.90;;;;;;5046910;28;20045;-74
2023/03/22 05:13:47;;;;;;;120.38;59.80;;;6.70;99.90;;;;;;5046661;28;20096;-75
2023/03/22 05:16:13;;;;;;;117.80;56.88;;;6.80;99.90;;;;;;5055819;28;20033;-74
2023/03/22 05:18:49;;;;;;;118.75;58.25;;;6.70;99.90;;;;;;5050370;28;20025;-74
2023/03/22 05:21:27;;;;;;;120.80;58.97;;;6.70;99.90;;;;;;5049196;28;20446;-74
2023/03/22 05:23:57;;;;;;;120.03;57.65;;;6.70;99.90;;;;;;5042017;28;20063;-74
2023/03/22 05:26:29;;;;;;;113.45;56.65;;;6.70;99.90;;;;;;5040388;28;20072;-74
2023/03/22 05:29:02;;;;;;;114.82;57.67;;;6.80;99.90;;;;;;5049193;28;20108;-74
2023/03/22 05:31:34;;;;;;;123.20;58.58;;;6.80;99.90;;;;;;5050147;28;20483;-74
2023/03/22 05:34:08;;;;;;;92.67;44.97;;;6.80;99.90;;;;;;5040475;28;20017;-74
2023/03/22 05:36:46;;;;;;;119.70;58.53;;;6.90;99.90;;;;;;5049482;28;20033;-74
2023/03/22 05:39:21;;;;;;;113.28;57.70;;;6.90;99.90;;;;;;5047047;28;20025;-74
2023/03/22 05:41:47;;;;;;;117.45;57.80;;;6.90;99.90;;;;;;5042103;28;20053;-74
2023/03/22 05:44:12;;;;;;;105.05;54.47;;;6.90;99.90;;;;;;5038773;28;20029;-74
2023/03/22 05:46:38;;;;;;;107.68;54.75;;;6.90;99.90;;;;;;5044428;28;20032;-75
2023/03/22 05:49:04;;;;;;;110.20;56.15;;;7.00;99.90;;;;;;5048860;28;20027;-74
2023/03/22 05:51:30;;;;;;;103.22;56.28;;;7.00;99.90;;;;;;5047998;28;20036;-74
2023/03/22 05:54:02;;;;;;;92.85;53.33;;;7.10;99.90;;;;;;5030144;28;20033;-74
2023/03/22 05:56:29;;;;;;;98.05;51.75;;;7.10;99.90;;;;;;5044941;28;20097;-73
2023/03/22 05:58:57;;;;;;;94.72;51.10;;;7.10;99.90;;;;;;5044092;28;20473;-74
2023/03/22 06:01:24;;;;;;;95.32;51.78;;;7.20;99.90;;;;;;5031859;28;20032;-74
2023/03/22 06:03:53;;;;;;;89.55;50.70;;;7.20;99.90;;;;;;5025986;28;20632;-74
2023/03/22 06:06:21;;;;;;;88.22;49.45;;;7.20;99.90;;;;;;5037013;28;20163;-74
2023/03/22 06:08:53;;;;;;;91.30;51.15;;;7.30;99.90;;;;;;5039831;28;20033;-74
2023/03/22 06:11:18;;;;;;;89.18;48.35;;;7.30;99.90;;;;;;5036019;28;20028;-73
2023/03/22 06:13:52;;;;;;;78.47;46.10;;;7.40;99.90;;;;;;5043538;28;20028;-74
2023/03/22 06:16:18;;;;;;;80.60;46.42;;;7.30;99.90;;;;;;5037211;28;20029;-73
2023/03/22 06:18:49;;;;;;;77.45;45.00;;;7.40;99.90;;;;;;5034042;28;20021;-74
2023/03/22 06:21:17;;;;;;;78.10;45.42;;;7.40;99.90;;;;;;5032721;28;20072;-73
2023/03/22 06:23:46;;;;;;;75.35;44.17;;;7.50;99.90;;;;;;5030411;28;20025;-73
2023/03/22 06:26:14;;;;;;;79.45;44.90;;;7.50;99.90;;;;;;5029242;28;20473;-73
2023/03/22 06:28:45;;;;;;;77.80;44.15;;;7.50;99.90;;;;;;5041358;28;20029;-74
2023/03/22 06:31:11;;;;;;;70.30;41.38;;;7.50;99.90;;;;;;5034362;28;20031;-73
2023/03/22 06:33:37;;;;;;;73.15;43.20;;;;;;;;;;5038243;28;20128;-73
2023/03/22 06:36:04;;;;;;;68.55;41.13;;;7.50;99.90;;;;;;5029331;28;20115;-73
2023/03/22 06:38:31;;;;;;;70.45;41.28;;;7.60;99.90;;;;;;5025440;28;20036;-73
2023/03/22 06:40:59;;;;;;;68.70;40.90;;;7.60;99.90;;;;;;5034091;28;20036;-73
2023/03/22 06:43:25;;;;;;;67.43;39.40;;;7.60;99.90;;;;;;5033021;28;20474;-73
2023/03/22 06:45:57;;;;;;;68.03;39.58;;;7.60;99.90;;;;;;5042475;28;20135;-73
2023/03/22 06:48:24;;;;;;;62.88;38.38;;;7.70;99.90;;;;;;5044966;28;20505;-73
2023/03/22 06:50:49;;;;;;;68.03;39.55;;;7.70;99.90;;;;;;5030198;28;20044;-73
2023/03/22 06:53:20;;;;;;;67.30;39.47;;;7.70;99.90;;;;;;5046947;28;20025;-73
2023/03/22 06:55:47;;;;;;;67.40;38.13;;;7.80;99.90;;;;;;5048234;28;20505;-73
2023/03/22 06:58:13;;;;;;;59.88;36.85;;;;;;;;;;5042492;28;20024;-73
2023/03/22 07:00:40;;;;;;;57.75;36.58;;;7.90;99.90;;;;;;5044981;28;20037;-73
2023/03/22 07:03:08;;;;;;;61.75;36.33;;;8.00;99.90;;;;;;5049906;28;20163;-73
2023/03/22 07:05:35;;;;;;;61.78;35.03;;;8.10;99.90;;;;;;5038728;28;20067;-73
2023/03/22 07:08:07;;;;;;;53.30;34.58;;;8.10;99.90;;;;;;5050103;28;20068;-73
2023/03/22 07:10:34;;;;;;;60.13;35.17;;;8.20;99.90;;;;;;5038346;28;20162;-73
2023/03/22 07:13:01;;;;;;;53.47;33.72;;;8.30;99.90;;;;;;5048339;28;20063;-73
2023/03/22 07:15:29;;;;;;;52.50;32.10;;;8.50;99.90;;;;;;5047920;28;20151;-73
2023/03/22 07:17:55;;;;;;;51.53;32.42;;;8.60;99.90;;;;;;5045476;28;20033;-73
2023/03/22 07:20:21;;;;;;;54.55;32.85;;;8.70;99.90;;;;;;5039690;28;20037;-73
2023/03/22 07:22:49;;;;;;;48.10;29.90;;;8.90;99.90;;;;;;5046963;28;20530;-73
2023/03/22 07:25:15;;;;;;;42.95;29.50;;;9.00;99.90;;;;;;5048775;28;20047;-73
2023/03/22 07:27:42;;;;;;;37.65;26.50;;;9.10;99.90;;;;;;5051483;28;20089;-73
2023/03/22 07:30:10;;;;;;;36.42;25.83;;;9.10;99.90;;;;;;5039733;28;20114;-73
2023/03/22 07:32:38;;;;;;;37.88;26.67;;;9.30;99.90;;;;;;5047255;28;20036;-73
2023/03/22 07:35:06;;;;;;;38.63;25.40;;;;;;;;;;5034275;28;20033;-73
2023/03/22 07:37:34;;;;;;;35.67;23.83;;;;;;;;;;5047070;28;20056;-73
2023/03/22 07:40:03;;;;;;;32.13;22.35;;;;;;;;;;5043980;28;20393;-73
2023/03/22 07:42:30;;;;;;;32.42;22.55;;;;;;;;;;5044214;28;20029;-73
2023/03/22 07:44:56;;;;;;;29.17;18.83;;;;;;;;;;5051633;28;20098;-73
2023/03/22 07:47:25;;;;;;;25.02;17.85;;;;;;;;;;5045631;28;20025;-73
2023/03/22 07:49:52;;;;;;;27.27;18.48;;;;;;;;;;5043260;28;20025;-73
2023/03/22 07:52:18;;;;;;;27.63;18.33;;;9.40;99.90;;;;;;5043908;28;20138;-74
2023/03/22 07:54:47;;;;;;;25.77;18.05;;;9.30;99.90;;;;;;5051075;28;20048;-73
2023/03/22 07:57:13;;;;;;;32.03;17.85;;;9.30;99.90;;;;;;5050412;28;20467;-73
2023/03/22 07:59:39;;;;;;;26.00;16.90;;;9.30;99.90;;;;;;5051465;28;20021;-73
2023/03/22 08:02:09;;;;;;;29.40;18.55;;;9.30;99.90;;;;;;5043924;28;20043;-73
2023/03/22 08:04:39;;;;;;;25.77;17.55;;;9.20;99.90;;;;;;5050357;28;20044;-73
2023/03/22 08:07:08;;;;;;;25.02;17.85;;;9.30;99.90;;;;;;5040220;28;20065;-73
2023/03/22 08:09:35;;;;;;;27.70;17.80;;;9.30;99.90;;;;;;5031690;28;20105;-73
2023/03/22 08:12:06;;;;;;;32.83;18.33;;;9.30;99.90;;;;;;5044438;28;20040;-73
2023/03/22 08:14:37;;;;;;;27.35;18.27;;;9.30;99.90;;;;;;5047547;28;20037;-73
2023/03/22 08:17:07;;;;;;;25.60;16.80;;;9.30;99.90;;;;;;5044520;28;20025;-73
2023/03/22 08:19:35;;;;;;;25.00;16.70;;;9.40;99.90;;;;;;5031467;28;20025;-73
2023/03/22 08:22:01;;;;;;;24.42;16.77;;;9.60;99.90;;;;;;5048814;28;20163;-73
2023/03/22 08:24:33;;;;;;;25.17;17.38;;;9.60;99.90;;;;;;5038978;28;20046;-73
2023/03/22 08:27:01;;;;;;;24.17;16.75;;;9.70;99.90;;;;;;5042375;28;20469;-74
2023/03/22 08:29:27;;;;;;;22.77;17.17;;;9.90;99.90;;;;;;5050053;28;20497;-73
2023/03/22 08:31:53;;;;;;;22.13;15.65;;;10.10;99.90;;;;;;5040379;28;20586;-74
2023/03/22 08:34:20;;;;;;;19.83;14.40;;;10.20;99.90;;;;;;5038628;28;20022;-74
2023/03/22 08:36:48;;;;;;;21.42;14.48;;;10.30;99.90;;;;;;5047839;28;20032;-73
2023/03/22 08:39:21;;;;;;;20.95;14.10;;;10.40;99.90;;;;;;5045860;28;20041;-73
2023/03/22 08:41:47;;;;;;;18.50;13.45;;;10.40;99.90;;;;;;5037367;28;20405;-73
2023/03/22 08:44:15;;;;;;;22.83;14.77;;;10.40;99.90;;;;;;5044162;28;20047;-74
2023/03/22 08:46:43;;;;;;;21.23;13.57;;;10.40;99.90;;;;;;5037105;28;20025;-74
2023/03/22 08:49:09;;;;;;;16.60;11.98;;;10.40;99.90;;;;;;5040381;28;20025;-74
2023/03/22 08:51:35;;;;;;;15.43;11.77;;;10.30;99.90;;;;;;5043137;28;20037;-74
2023/03/22 08:54:04;;;;;;;14.55;11.30;;;10.20;99.90;;;;;;5042168;28;20060;-74
2023/03/22 08:56:36;;;;;;;17.77;11.40;;;10.30;99.90;;;;;;5039559;28;20053;-74
2023/03/22 08:59:05;;;;;;;15.05;11.00;;;10.40;99.90;;;;;;5044215;28;20388;-73
2023/03/22 09:01:33;;;;;;;18.08;11.45;;;10.50;99.90;;;;;;5042352;28;20032;-74
2023/03/22 09:04:01;;;;;;;17.02;11.50;;;10.60;99.90;;;;;;5046149;28;20040;-73
2023/03/22 09:06:27;;;;;;;18.35;10.98;;;10.70;99.90;;;;;;5041817;28;20040;-73
2023/03/22 09:08:55;;;;;;;17.23;10.48;;;10.70;99.90;;;;;;5046165;28;20032;-73
2023/03/22 09:11:22;;;;;;;19.63;11.10;;;10.70;99.90;;;;;;5038283;28;20022;-73
2023/03/22 09:13:59;;;;;;;17.80;11.75;;;10.70;99.90;;;;;;5040320;28;20028;-72
2023/03/22 09:16:33;;;;;;;18.38;11.30;;;10.70;99.90;;;;;;5043920;28;20039;-72
2023/03/22 09:19:06;;;;;;;18.90;11.70;;;10.70;99.90;;;;;;5044994;28;20408;-74
2023/03/22 09:21:33;;;;;;;18.10;11.50;;;10.80;99.90;;;;;;5044386;28;20380;-73
2023/03/22 09:24:03;;;;;;;19.48;11.15;;;10.90;99.90;;;;;;5046747;28;20032;-72
2023/03/22 09:26:38;;;;;;;18.85;10.73;;;10.90;99.90;;;;;;5029201;28;20670;-73
2023/03/22 09:29:07;;;;;;;17.40;11.23;;;11.00;99.90;;;;;;5036499;28;20071;-72
2023/03/22 09:31:35;;;;;;;16.15;11.00;;;11.00;99.90;;;;;;5043095;28;20029;-73
2023/03/22 09:34:01;;;;;;;16.00;10.43;;;11.20;99.90;;;;;;5044429;28;20021;-73
2023/03/22 09:36:36;;;;;;;17.23;10.00;;;11.30;99.90;;;;;;5040453;28;20025;-73
2023/03/22 09:39:06;;;;;;;16.27;10.45;;;11.30;99.90;;;;;;5049161;28;20041;-73
2023/03/22 09:41:55;;;;;;;18.35;11.20;;;11.30;99.90;;;;;;5041582;28;20039;-73
2023/03/22 09:44:36;;;;;;;18.15;10.55;;;11.30;99.90;;;;;;5040453;28;20041;-72
2023/03/22 09:47:20;;;;;;;16.77;10.52;;;11.40;99.90;;;;;;4941146;27;3719295;-71
2023/03/22 09:50:02;;;;;;;16.38;10.73;;;11.40;99.90;;;;;;5046532;28;20317;-72
2023/03/22 09:52:31;;;;;;;17.67;11.18;;;11.50;99.90;;;;;;5057055;28;20024;-72
2023/03/22 09:55:04;;;;;;;15.40;11.77;;;11.50;99.90;;;;;;5057016;28;20025;-72
2023/03/22 09:57:36;;;;;;;17.50;10.43;;;11.40;99.90;;;;;;5052674;28;20032;-73
2023/03/22 10:00:21;;;;;;;17.25;9.60;;;11.40;99.90;;;;;;5049956;28;20112;-74
2023/03/22 10:03:08;;;;;;;14.40;9.00;;;11.30;99.90;;;;;;5031462;28;20033;-71
2023/03/22 10:05:49;;;;;;;13.73;7.78;;;11.30;99.90;;;;;;5039280;28;20028;-71
2023/03/22 10:08:34;;;;;;;11.98;6.97;;;11.30;99.90;;;;;;5034431;28;20122;-72
2023/03/22 10:11:17;;;;;;;9.80;6.50;;;11.50;99.90;;;;;;5039956;28;20116;-72
2023/03/22 10:13:53;;;;;;;12.63;6.20;;;11.50;99.90;;;;;;5040295;28;20033;-73
2023/03/22 10:16:33;;;;;;;12.90;6.38;;;11.60;99.90;;;;;;5043796;28;20033;-73
2023/03/22 10:19:16;;;;;;;10.82;6.40;;;11.70;99.90;;;;;;5036060;28;20494;-73
2023/03/22 10:21:53;;;;;;;10.05;6.60;;;11.80;99.90;;;;;;5041552;28;20318;-73
2023/03/22 10:24:30;;;;;;;10.65;5.78;;;12.00;99.90;;;;;;5041326;28;20116;-72
2023/03/22 10:27:01;;;;;;;9.68;5.32;;;12.10;99.90;;;;;;5044003;28;20025;-72
2023/03/22 10:29:42;;;;;;;13.35;6.00;;;12.10;99.90;;;;;;5033311;28;20494;-73
2023/03/22 10:32:20;;;;;;;11.27;5.93;;;12.20;99.90;;;;;;5026255;28;20026;-73
2023/03/22 10:34:51;;;;;;;10.02;5.47;;;12.20;99.90;;;;;;5039676;28;20021;-72
2023/03/22 10:37:30;;;;;;;12.63;5.60;;;12.20;99.90;;;;;;5038258;28;20555;-72
2023/03/22 10:40:05;;;;;;;9.70;4.80;;;12.60;99.90;;;;;;5044107;28;20329;-73
2023/03/22 10:42:40;;;;;;;12.80;4.70;;;12.80;99.90;;;;;;5039480;28;20037;-74
2023/03/22 10:45:15;;;;;;;8.00;4.80;;;12.80;99.90;;;;;;5038113;28;20037;-74
2023/03/22 10:47:43;;;;;;;9.00;4.47;;;12.90;99.90;;;;;;5038255;28;20033;-74
2023/03/22 10:50:25;;;;;;;6.93;4.68;;;12.90;99.90;;;;;;5043694;28;20021;-74
2023/03/22 10:53:33;;;;;;;9.27;4.80;;;12.90;99.90;;;;;;5037507;28;20037;-74
2023/03/22 10:56:10;;;;;;;8.15;4.18;;;12.90;99.90;;;;;;5040729;28;20029;-74
2023/03/22 10:58:43;;;;;;;9.77;4.60;;;12.90;99.90;;;;;;5024553;28;20029;-74
2023/03/22 11:01:15;;;;;;;7.72;4.15;;;13.00;99.90;;;;;;5016521;28;20037;-73
2023/03/22 11:03:56;;;;;;;12.45;4.40;;;13.00;99.90;;;;;;5029895;28;20382;-74
2023/03/22 11:06:34;;;;;;;11.38;4.30;;;12.90;99.90;;;;;;5023617;28;20069;-74
2023/03/22 11:09:13;;;;;;;8.32;4.20;;;12.90;99.90;;;;;;5028707;28;20460;-74
2023/03/22 11:11:50;;;;;;;10.25;5.78;;;13.10;99.90;;;;;;5019766;28;21449;-74
2023/03/22 11:14:34;;;;;;;9.40;5.70;;;13.10;99.90;;;;;;5030433;28;20049;-74
2023/03/22 11:17:13;;;;;;;10.38;5.45;;;13.20;99.90;;;;;;5021611;28;20371;-74
2023/03/22 11:20:01;;;;;;;10.25;4.80;;;13.30;99.90;;;;;;5027666;28;20057;-74
2023/03/22 11:22:34;;;;;;;10.63;4.78;;;13.30;99.90;;;;;;5020123;28;20029;-74
2023/03/22 11:25:22;;;;;;;10.25;4.50;;;13.30;99.90;;;;;;5030681;28;20029;-74
2023/03/22 11:27:56;;;;;;;6.78;3.90;;;13.40;99.90;;;;;;5010491;28;20115;-74
2023/03/22 11:30:34;;;;;;;7.43;3.53;;;13.30;99.90;;;;;;5023988;28;20025;-74
2023/03/22 11:33:07;;;;;;;6.30;3.35;;;13.30;99.90;;;;;;5010968;28;20040;-73
2023/03/22 11:35:42;;;;;;;10.07;3.22;;;13.30;99.90;;;;;;5025966;28;20521;-73
2023/03/22 11:38:30;;;;;;;11.65;4.25;;;13.40;99.90;;;;;;5023051;28;20041;-74
2023/03/22 11:41:05;;;;;;;10.90;4.90;;;13.40;99.90;;;;;;5023252;28;20046;-73
2023/03/22 11:43:43;;;;;;;7.93;4.90;;;13.60;99.90;;;;;;5016829;28;20030;-74
2023/03/22 11:46:14;;;;;;;8.70;5.82;;;13.50;99.90;;;;;;5010546;28;20050;-73
2023/03/22 11:48:48;;;;;;;9.25;5.95;;;;;;;;;;5021634;28;20024;-74
2023/03/22 11:51:17;;;;;;;9.90;5.13;;;13.50;99.90;;;;;;5015033;28;20103;-74
2023/03/22 11:53:54;;;;;;;10.70;4.90;;;13.60;99.90;;;;;;5017916;28;20109;-74
2023/03/22 11:56:28;;;;;;;5.82;3.40;;;;;;;;;;5019506;28;20243;-74
2023/03/22 11:59:06;;;;;;;7.63;3.53;;;13.70;99.90;;;;;;5021062;28;20559;-74
2023/03/22 12:01:41;;;;;;;6.43;2.90;;;13.80;99.90;;;;;;5020088;28;20029;-74
2023/03/22 12:04:19;;;;;;;6.22;3.50;;;13.80;99.90;;;;;;5023114;28;20374;-74
2023/03/22 12:06:51;;;;;;;6.18;4.18;;;13.80;99.90;;;;;;5015573;28;20029;-74
2023/03/22 12:09:32;;;;;;;5.50;2.72;;;13.90;99.90;;;;;;5028888;28;20025;-73
2023/03/22 12:12:04;;;;;;;3.13;1.65;;;;;;;;;;5027726;28;20061;-73
2023/03/22 12:14:55;;;;;;;4.75;1.42;;;13.90;99.90;;;;;;5021967;28;20497;-73
2023/03/22 12:17:24;;;;;;;5.53;1.63;;;;;;;;;;5027437;28;20118;-73
2023/03/22 12:20:16;;;;;;;2.72;1.55;;;13.90;99.90;;;;;;5025430;28;20386;-74
2023/03/22 12:22:50;;;;;;;4.63;2.47;;;;;;;;;;5028023;28;20120;-74
2023/03/22 12:25:28;;;;;;;9.60;2.95;;;13.70;99.90;;;;;;5027750;28;20031;-73
2023/03/22 12:28:09;;;;;;;6.55;3.17;;;13.70;99.90;;;;;;5022803;28;20075;-73
2023/03/22 12:30:52;;;;;;;6.78;3.38;;;13.70;99.90;;;;;;5021544;28;20097;-73
2023/03/22 12:33:40;;;;;;;5.40;3.28;;;13.70;99.90;;;;;;5028615;28;20514;-73
2023/03/22 12:36:21;;;;;;;5.15;2.80;;;13.90;99.90;;;;;;5024410;28;20112;-74
2023/03/22 12:38:55;;;;;;;6.72;3.30;;;13.90;99.90;;;;;;5025587;28;20082;-73
2023/03/22 12:41:32;;;;;;;4.10;2.53;;;13.90;99.90;;;;;;5025902;28;20069;-73
2023/03/22 12:44:03;;;;;;;6.13;2.30;;;;;;;;;;5027207;28;20124;-74
2023/03/22 12:46:49;;;;;;;3.40;1.88;;;14.20;99.90;;;;;;5024654;28;20494;-74
2023/03/22 12:49:39;;;;;;;5.63;1.60;;;14.60;99.90;;;;;;5021298;28;20104;-73
2023/03/22 12:52:34;;;;;;;3.83;1.65;;;14.60;99.90;;;;;;5021097;28;20025;-72
2023/03/22 12:55:04;;;;;;;5.50;1.63;;;14.80;99.90;;;;;;5026543;28;20018;-73
2023/03/22 12:57:43;;;;;;;3.83;1.75;;;14.70;99.90;;;;;;4803278;28;10001917;-72
2023/03/22 13:00:16;;;;;;;3.30;1.38;;;;;;;;;;5025041;28;20311;-70
2023/03/22 13:02:47;;;;;;;4.10;1.65;;;;;;;;;;5034445;28;20025;-71
2023/03/22 13:05:13;;;;;;;3.72;1.60;;;14.30;99.90;;;;;;5033802;28;20498;-72
2023/03/22 13:07:51;;;;;;;4.70;1.40;;;14.30;99.90;;;;;;5035842;28;20036;-72
2023/03/22 13:10:32;;;;;;;2.97;1.35;;;14.40;99.90;;;;;;5039968;28;20033;-74
2023/03/22 13:13:11;;;;;;;2.97;1.30;;;;;;;;;;5034795;28;20064;-71
2023/03/22 13:15:41;;;;;;;6.38;1.35;;;;;;;;;;5031329;28;20910;-72
2023/03/22 13:18:25;;;;;;;2.40;1.02;;;;;;;;;;5029701;28;20025;-71
2023/03/22 13:21:07;;;;;;;4.00;1.35;;;;;;;;;;5037339;28;20071;-71